Time;durP1;ratioP1;P1;durP2;ratioP2;P2;SDS_P1;SDS_P2;PMS_P1;PMS_P2;Temp;Humidity;BMP_temperature;BMP_pressure;BME280_temperature;BME280_humidity;BME280_pressure;Samples;Min_cycle;Max_cycle;Signal;HPM_P1;HPM_P2
2023/02/28 00:00:51;;;;;;;;;;;;;;;;;;4976905;28;20076;-83
2023/02/28 00:03:16;;;;;;;;;;;;;;;;;;4994363;28;20439;-83
2023/02/28 00:05:42;;;;;;;;;;;;;;;;;;4994303;28;19922;-84
2023/02/28 00:08:08;;;;;;;;;;;;;;;;;;4976817;28;20008;-84
2023/02/28 00:10:33;;;;;;;;;;;;;;;;;;4994101;28;19925;-83
2023/02/28 00:13:01;;;;;;;;;;;;;;;;;;4976756;28;19922;-83
2023/02/28 00:15:27;;;;;;;;;;;;;;;;;;4994127;28;20333;-83
2023/02/28 00:17:52;;;;;;;;;;;;;;;;;;4994294;28;19929;-83
2023/02/28 00:20:18;;;;;;;;;;;;;;;;;;4993970;28;19926;-83
2023/02/28 00:22:45;;;;;;;;;;;;;;;;;;4976520;28;20391;-83
2023/02/28 00:25:12;;;;;;;;;;;;;;;;;;4994053;28;20322;-83
2023/02/28 00:27:38;;;;;;;;;;;;;;;;;;4993929;28;19918;-83
2023/02/28 00:30:04;;;;;;;;;;;;;;;;;;4993745;28;19929;-86
2023/02/28 00:32:29;;;;;;;;;;;;;;;;;;4993973;28;20270;-83
2023/02/28 00:34:55;;;;;;;;;;;;;;;;;;4993925;28;19918;-82
2023/02/28 00:37:21;;;;;;;;;;;;;;;;;;4993823;28;19956;-84
2023/02/28 00:39:46;;;;;;;;;;;;;;;;;;4993816;28;19918;-84
2023/02/28 00:42:17;;;;;;;;;;;;;;;;;;4993854;28;19972;-83
2023/02/28 00:44:43;;;;;;;;;;;;;;;;;;4993845;28;19925;-83
2023/02/28 00:47:08;;;;;;;;;;;;;;;;;;4993498;28;19918;-85
2023/02/28 00:49:33;;;;;;;;;;;;;;;;;;4993891;28;19918;-83
2023/02/28 00:51:59;;;;;;;;;;;;;;;;;;4993720;28;19967;-84
2023/02/28 00:54:24;;;;;;;;;;;;;;;;;;4976390;28;19918;-84
2023/02/28 00:56:50;;;;;;;;;;;;;;;;;;4976543;28;19922;-83
2023/02/28 00:59:16;;;;;;;;;;;;;;;;;;4993949;28;19929;-84
2023/02/28 01:01:42;;;;;;;;;;;;;;;;;;4994101;28;19918;-83
2023/02/28 01:04:08;;;;;;;;;;;;;;;;;;4994016;28;19918;-84
2023/02/28 01:06:33;;;;;;;;;;;;;;;;;;4994138;28;19940;-84
2023/02/28 01:08:59;;;;;;;;;;;;;;;;;;4980106;28;20447;-83
2023/02/28 01:11:24;;;;;;;;;;;;;;;;;;5007679;28;19946;-84
2023/02/28 01:13:50;;;;;;;;;;;;;;;;;;5012864;28;19985;-83
2023/02/28 01:16:15;;;;;;;;;;;;;;;;;;4990517;28;20293;-84
2023/02/28 01:18:41;;;;;;;;;;;;;;;;;;4984865;28;19918;-83
2023/02/28 01:21:07;;;;;;;;;;;;;;;;;;4998206;28;19925;-85
2023/02/28 01:23:33;;;;;;;;;;;;;;;;;;4997784;28;20016;-85
2023/02/28 01:26:10;;;;;;;;;;;;;;;;;;4997394;28;20016;-86
2023/02/28 01:28:35;;;;;;;;;;;;;;;;;;4979540;28;20008;-84
2023/02/28 01:31:01;;;;;;;;;;;;;;;;;;4997043;28;20008;-86
2023/02/28 01:33:26;;;;;;;;;;;;;;;;;;4997078;28;19914;-84
2023/02/28 01:35:59;;;;;;;;;;;;;;;;;;4979490;28;20392;-83
2023/02/28 01:38:24;;;;;;;;;;;;;;;;;;4997019;28;20374;-83
2023/02/28 01:40:50;;;;;;;;;;;;;;;;;;4979281;28;19965;-84
2023/02/28 01:43:26;;;;;;;;;;;;;;;;;;4996932;28;19918;-84
2023/02/28 01:45:55;;;;;;;;;;;;;;;;;;4996892;28;19918;-83
2023/02/28 01:48:23;;;;;;;;;;;;;;;;;;4997135;28;19925;-83
2023/02/28 01:50:49;;;;;;;;;;;;;;;;;;4996721;28;19914;-85
2023/02/28 01:53:17;;;;;;;;;;;;;;;;;;4979149;28;19921;-83
2023/02/28 01:55:45;;;;;;;;;;;;;;;;;;4996722;28;19918;-83
2023/02/28 01:58:10;;;;;;;;;;;;;;;;;;4995333;28;19914;-84
2023/02/28 02:00:36;;;;;;;;;;;;;;;;;;4996850;28;20289;-83
2023/02/28 02:03:09;;;;;;;;;;;;;;;;;;4978929;28;19961;-83
2023/02/28 02:05:36;;;;;;;;;;;;;;;;;;4978910;28;20012;-83
2023/02/28 02:08:03;;;;;;;;;;;;;;;;;;4979240;28;19918;-84
2023/02/28 02:10:42;;;;;;;;;;;;;;;;;;4978866;28;20392;-84
2023/02/28 02:13:13;;;;;;;;;;;;;;;;;;4996285;28;20377;-82
2023/02/28 02:15:38;;;;;;;;;;;;;;;;;;4996251;28;19918;-83
2023/02/28 02:18:12;;;;;;;;;;;;;;;;;;4996088;28;19918;-87
2023/02/28 02:20:46;;;;;;;;;;;;;;;;;;4978752;28;20033;-84
2023/02/28 02:23:30;;;;;;;;;;;;;;;;;;4978774;28;19918;-84
2023/02/28 02:25:58;;;;;;;;;;;;;;;;;;4996382;28;19917;-84
2023/02/28 02:28:27;;;;;;;;;;;;;;;;;;4995983;28;19961;-84
2023/02/28 02:30:55;;;;;;;;;;;;;;;;;;4978583;28;19918;-84
2023/02/28 02:33:39;;;;;;;;;;;;;;;;;;4978499;28;19918;-85
2023/02/28 02:36:10;;;;;;;;;;;;;;;;;;4995907;28;19972;-87
2023/02/28 02:38:36;;;;;;;;;;;;;;;;;;4995865;28;20366;-84
2023/02/28 02:41:20;;;;;;;;;;;;;;;;;;4978318;28;19922;-84
2023/02/28 02:43:51;;;;;;;;;;;;;;;;;;4995787;28;20393;-83
2023/02/28 02:46:20;;;;;;;;;;;;;;;;;;4978277;28;19925;-85
2023/02/28 02:48:46;;;;;;;;;;;;;;;;;;4978205;28;20370;-84
2023/02/28 02:51:18;;;;;;;;;;;;;;;;;;4995757;28;20535;-83
2023/02/28 02:53:55;;;;;;;;;;;;;;;;;;4995673;28;19921;-84
2023/02/28 02:56:22;;;;;;;;;;;;;;;;;;4995692;28;19918;-84
2023/02/28 02:58:49;;;;;;;;;;;;;;;;;;4995550;28;19929;-84
2023/02/28 03:01:27;;;;;;;;;;;;;;;;;;4995436;28;19921;-83
2023/02/28 03:04:13;;;;;;;;;;;;;;;;;;4995398;28;19981;-83
2023/02/28 03:06:38;;;;;;;;;;;;;;;;;;4994740;28;19969;-85
2023/02/28 03:09:04;;;;;;;;;;;;;;;;;;4977681;28;20358;-85
2023/02/28 03:11:31;;;;;;;;;;;;;;;;;;4995190;28;19925;-83
2023/02/28 03:14:05;;;;;;;;;;;;;;;;;;4995232;28;19918;-83
2023/02/28 03:16:45;;;;;;;;;;;;;;;;;;4995313;28;19914;-83
2023/02/28 03:19:17;;;;;;;;;;;;;;;;;;4977665;28;19918;-84
2023/02/28 03:22:04;;;;;;;;;;;;;;;;;;4977413;28;20381;-84
2023/02/28 03:24:29;;;;;;;;;;;;;;;;;;4995077;28;19926;-83
2023/02/28 03:27:06;;;;;;;;;;;;;;;;;;4995014;28;19925;-84
2023/02/28 03:29:51;;;;;;;;;;;;;;;;;;4994429;28;19944;-83
2023/02/28 03:32:28;;;;;;;;;;;;;;;;;;4977519;28;19918;-84
2023/02/28 03:35:00;;;;;;;;;;;;;;;;;;4994861;28;19920;-83
2023/02/28 03:37:26;;;;;;;;;;;;;;;;;;4994874;28;19960;-83
2023/02/28 03:40:08;;;;;;;;;;;;;;;;;;4994761;28;19914;-83
2023/02/28 03:42:35;;;;;;;;;;;;;;;;;;4994609;28;19918;-84
2023/02/28 03:45:02;;;;;;;;;;;;;;;;;;4994581;28;19921;-83
2023/02/28 03:47:31;;;;;;;;;;;;;;;;;;4994567;28;20008;-84
2023/02/28 03:50:17;;;;;;;;;;;;;;;;;;4994564;28;19918;-83
2023/02/28 03:52:46;;;;;;;;;;;;;;;;;;4983834;28;19917;-83
2023/02/28 03:55:13;;;;;;;;;;;;;;;;;;4976995;28;20445;-84
2023/02/28 03:57:44;;;;;;;;;;;;;;;;;;4994344;28;19952;-83
2023/02/28 04:00:14;;;;;;;;;;;;;;;;;;4976846;28;19922;-84
2023/02/28 04:02:39;;;;;;;;;;;;;;;;;;4977052;28;19921;-84
2023/02/28 04:05:05;;;;;;;;;;;;;;;;;;4994379;28;19946;-86
2023/02/28 04:07:31;;;;;;;;;;;;;;;;;;4994273;28;19937;-83
2023/02/28 04:09:56;;;;;;;;;;;;;;;;;;4994245;28;19933;-84
2023/02/28 04:12:23;;;;;;;;;;;;;;;;;;4994304;28;19918;-84
2023/02/28 04:14:48;;;;;;;;;;;;;;;;;;4994052;28;19922;-84
2023/02/28 04:17:14;;;;;;;;;;;;;;;;;;4994094;28;20069;-84
2023/02/28 04:19:39;;;;;;;;;;;;;;;;;;4976736;28;19972;-83
2023/02/28 04:22:04;;;;;;;;;;;;;;;;;;4994010;28;19918;-87
2023/02/28 04:24:30;;;;;;;;;;;;;;;;;;4994220;28;19921;-85
2023/02/28 04:26:56;;;;;;;;;;;;;;;;;;4994041;28;20441;-84
2023/02/28 04:29:29;;;;;;;;;;;;;;;;;;4993801;28;19928;-86
2023/02/28 04:31:58;;;;;;;;;;;;;;;;;;4993872;28;19925;-84
2023/02/28 04:34:24;;;;;;;;;;;;;;;;;;4994004;28;20727;-84
2023/02/28 04:36:50;;;;;;;;;;;;;;;;;;4993887;28;19961;-85
2023/02/28 04:39:18;;;;;;;;;;;;;;;;;;4993898;28;19918;-84
2023/02/28 04:41:43;;;;;;;;;;;;;;;;;;4993939;28;19918;-84
2023/02/28 04:44:09;;;;;;;;;;;;;;;;;;4998143;28;20178;-85
2023/02/28 04:46:34;;;;;;;;;;;;;;;;;;4997850;28;19918;-84
2023/02/28 04:49:00;;;;;;;;;;;;;;;;;;4997912;28;19925;-86
2023/02/28 04:51:25;;;;;;;;;;;;;;;;;;4998252;28;20297;-85
2023/02/28 04:53:51;;;;;;;;;;;;;;;;;;4980368;28;19918;-84
2023/02/28 04:56:17;;;;;;;;;;;;;;;;;;4997712;28;19964;-85
2023/02/28 04:58:43;;;;;;;;;;;;;;;;;;4997766;28;19914;-83
2023/02/28 05:01:36;;;;;;;;;;;;;;;;;;4997584;28;19918;-83
2023/02/28 05:04:02;;;;;;;;;;;;;;;;;;4995304;28;19956;-85
2023/02/28 05:06:30;;;;;;;;;;;;;;;;;;4980509;28;19925;-84
2023/02/28 05:08:56;;;;;;;;;;;;;;;;;;4997760;28;20293;-84
2023/02/28 05:11:23;;;;;;;;;;;;;;;;;;4997648;28;19918;-83
2023/02/28 05:13:49;;;;;;;;;;;;;;;;;;4998092;28;19918;-84
2023/02/28 05:16:15;;;;;;;;;;;;;;;;;;4998261;28;19921;-86
2023/02/28 05:18:40;;;;;;;;;;;;;;;;;;4997854;28;19918;-84
2023/02/28 05:21:16;;;;;;;;;;;;;;;;;;4979898;28;20444;-86
2023/02/28 05:23:42;;;;;;;;;;;;;;;;;;5002134;28;19945;-84
2023/02/28 05:26:08;;;;;;;;;;;;;;;;;;5003178;28;19933;-84
2023/02/28 05:28:33;;;;;;;;;;;;;;;;;;5018099;28;19969;-84
2023/02/28 05:30:59;;;;;;;;;;;;;;;;;;4999511;28;19917;-86
2023/02/28 05:33:24;;;;;;;;;;;;;;;;;;4980445;28;19914;-87
2023/02/28 05:35:49;;;;;;;;;;;;;;;;;;4997701;28;19921;-85
2023/02/28 05:38:15;;;;;;;;;;;;;;;;;;4997543;28;19918;-84
2023/02/28 05:40:40;;;;;;;;;;;;;;;;;;4980084;28;19917;-88
2023/02/28 05:43:05;;;;;;;;;;;;;;;;;;4997225;28;19917;-86
2023/02/28 05:45:31;;;;;;;;;;;;;;;;;;4997131;28;20285;-86
2023/02/28 05:47:56;;;;;;;;;;;;;;;;;;4996957;28;19953;-84
2023/02/28 05:50:22;;;;;;;;;;;;;;;;;;4997005;28;20009;-85
2023/02/28 05:52:51;;;;;;;;;;;;;;;;;;4979197;28;19918;-84
2023/02/28 05:55:17;;;;;;;;;;;;;;;;;;4996806;28;19940;-86
2023/02/28 05:57:42;;;;;;;;;;;;;;;;;;4996860;28;20408;-85
2023/02/28 06:00:08;;;;;;;;;;;;;;;;;;4996540;28;20329;-85
2023/02/28 06:02:34;;;;;;;;;;;;;;;;;;4996534;28;19918;-84
2023/02/28 06:04:59;;;;;;;;;;;;;;;;;;4996564;28;19928;-84
2023/02/28 06:07:24;;;;;;;;;;;;;;;;;;4996692;28;19918;-84
2023/02/28 06:09:50;;;;;;;;;;;;;;;;;;4996533;28;20448;-86
2023/02/28 06:12:15;;;;;;;;;;;;;;;;;;4996444;28;19921;-85
2023/02/28 06:14:40;;;;;;;;;;;;;;;;;;4996273;28;19925;-85
2023/02/28 06:17:06;;;;;;;;;;;;;;;;;;4996304;28;20441;-87
2023/02/28 06:19:31;;;;;;;;;;;;;;;;;;4996208;28;19928;-85
2023/02/28 06:21:57;;;;;;;;;;;;;;;;;;4996237;28;19976;-85
2023/02/28 06:24:23;;;;;;;;;;;;;;;;;;4996165;28;19924;-85
2023/02/28 06:26:48;;;;;;;;;;;;;;;;;;4996311;28;19918;-85
2023/02/28 06:29:18;;;;;;;;;;;;;;;;;;4995988;28;20461;-84
2023/02/28 06:31:46;;;;;;;;;;;;;;;;;;4996493;28;20369;-86
2023/02/28 06:34:12;;;;;;;;;;;;;;;;;;4996094;28;19918;-85
2023/02/28 06:36:38;;;;;;;;;;;;;;;;;;4978437;28;19921;-84
2023/02/28 06:39:04;;;;;;;;;;;;;;;;;;4978433;28;20305;-85
2023/02/28 06:41:29;;;;;;;;;;;;;;;;;;4995766;28;19980;-85
2023/02/28 06:43:54;;;;;;;;;;;;;;;;;;4978778;28;19918;-85
2023/02/28 06:46:20;;;;;;;;;;;;;;;;;;4978410;28;19924;-85
2023/02/28 06:48:46;;;;;;;;;;;;;;;;;;4995875;28;20053;-85
2023/02/28 06:51:16;;;;;;;;;;;;;;;;;;4995975;28;20289;-84
2023/02/28 06:53:42;;;;;;;;;;;;;;;;;;4978169;28;19917;-84
2023/02/28 06:56:08;;;;;;;;;;;;;;;;;;4995774;28;20010;-84
2023/02/28 06:58:34;;;;;;;;;;;;;;;;;;4978012;28;19926;-85
2023/02/28 07:00:59;;;;;;;;;;;;;;;;;;4979236;28;20297;-85
2023/02/28 07:03:25;;;;;;;;;;;;;;;;;;4979026;28;19918;-84
2023/02/28 07:05:50;;;;;;;;;;;;;;;;;;4995706;28;19980;-84
2023/02/28 07:08:16;;;;;;;;;;;;;;;;;;4995712;28;20387;-83
2023/02/28 07:10:41;;;;;;;;;;;;;;;;;;4978565;28;19945;-84
2023/02/28 07:13:08;;;;;;;;;;;;;;;;;;4995830;28;19918;-85
2023/02/28 07:15:33;;;;;;;;;;;;;;;;;;4978606;28;19917;-84
2023/02/28 07:17:59;;;;;;;;;;;;;;;;;;4995335;28;20424;-85
2023/02/28 07:20:24;;;;;;;;;;;;;;;;;;4995720;28;19976;-84
2023/02/28 07:22:55;;;;;;;;;;;;;;;;;;4996293;28;20028;-85
2023/02/28 07:25:25;;;;;;;;;;;;;;;;;;4995661;28;19929;-87
2023/02/28 07:27:50;;;;;;;;;;;;;;;;;;4978467;28;19922;-85
2023/02/28 07:30:16;;;;;;;;;;;;;;;;;;4995180;28;20298;-86
2023/02/28 07:32:41;;;;;;;;;;;;;;;;;;4977495;28;19922;-86
2023/02/28 07:35:07;;;;;;;;;;;;;;;;;;4995473;28;20041;-87
2023/02/28 07:37:36;;;;;;;;;;;;;;;;;;4977458;28;19968;-86
2023/02/28 07:40:07;;;;;;;;;;;;;;;;;;4994996;28;19925;-85
2023/02/28 07:42:32;;;;;;;;;;;;;;;;;;4994712;28;19944;-85
2023/02/28 07:44:58;;;;;;;;;;;;;;;;;;4994765;28;19992;-86
2023/02/28 07:47:24;;;;;;;;;;;;;;;;;;4994573;28;19924;-85
2023/02/28 07:49:49;;;;;;;;;;;;;;;;;;4977103;28;19922;-87
2023/02/28 07:52:15;;;;;;;;;;;;;;;;;;4994485;28;20313;-85
2023/02/28 07:54:40;;;;;;;;;;;;;;;;;;4977319;28;19965;-86
2023/02/28 07:57:08;;;;;;;;;;;;;;;;;;4993711;28;20211;-85
2023/02/28 07:59:33;;;;;;;;;;;;;;;;;;4994517;28;19918;-86
2023/02/28 08:01:59;;;;;;;;;;;;;;;;;;4994507;28;19921;-85
2023/02/28 08:04:24;;;;;;;;;;;;;;;;;;4976876;28;19964;-85
2023/02/28 08:06:52;;;;;;;;;;;;;;;;;;4994462;28;19921;-85
2023/02/28 08:09:18;;;;;;;;;;;;;;;;;;4994230;28;20326;-84
2023/02/28 08:11:43;;;;;;;;;;;;;;;;;;4994143;28;19921;-85
2023/02/28 08:14:08;;;;;;;;;;;;;;;;;;4976488;28;19922;-85
2023/02/28 08:16:34;;;;;;;;;;;;;;;;;;4994134;28;19948;-85
2023/02/28 08:18:59;;;;;;;;;;;;;;;;;;4994170;28;19922;-85
2023/02/28 08:21:25;;;;;;;;;;;;;;;;;;4993913;28;19925;-84
2023/02/28 08:23:50;;;;;;;;;;;;;;;;;;4994083;28;19925;-86
2023/02/28 08:26:16;;;;;;;;;;;;;;;;;;4976977;28;19914;-86
2023/02/28 08:28:42;;;;;;;;;;;;;;;;;;4993716;28;19945;-85
2023/02/28 08:31:11;;;;;;;;;;;;;;;;;;4994081;28;20297;-85
2023/02/28 08:33:38;;;;;;;;;;;;;;;;;;4994031;28;19918;-85
2023/02/28 08:36:04;;;;;;;;;;;;;;;;;;4993979;28;19917;-86
2023/02/28 08:38:30;;;;;;;;;;;;;;;;;;4993968;28;20012;-85
2023/02/28 08:40:59;;;;;;;;;;;;;;;;;;4994021;28;19921;-85
2023/02/28 08:43:24;;;;;;;;;;;;;;;;;;4993985;28;19953;-85
2023/02/28 08:45:54;;;;;;;;;;;;;;;;;;4993725;28;19961;-87
2023/02/28 08:48:19;;;;;;;;;;;;;;;;;;4976668;28;20364;-85
2023/02/28 08:50:54;;;;;;;;;;;;;;;;;;4994301;28;19922;-85
2023/02/28 08:53:19;;;;;;;;;;;;;;;;;;4993719;28;19949;-85
2023/02/28 08:55:44;;;;;;;;;;;;;;;;;;4976527;28;20362;-85
2023/02/28 08:58:10;;;;;;;;;;;;;;;;;;4976137;28;19918;-86
2023/02/28 09:00:36;;;;;;;;;;;;;;;;;;4993165;28;19956;-84
2023/02/28 09:03:01;;;;;;;;;;;;;;;;;;4993686;28;20005;-85
2023/02/28 09:05:29;;;;;;;;;;;;;;;;;;4993588;28;20369;-85
2023/02/28 09:07:54;;;;;;;;;;;;;;;;;;4993702;28;19917;-86
2023/02/28 09:10:19;;;;;;;;;;;;;;;;;;4993539;28;19922;-84
2023/02/28 09:12:46;;;;;;;;;;;;;;;;;;4993535;28;19925;-85
2023/02/28 09:15:12;;;;;;;;;;;;;;;;;;4976101;28;19918;-84
2023/02/28 09:17:38;;;;;;;;;;;;;;;;;;4993536;28;19922;-85
2023/02/28 09:20:03;;;;;;;;;;;;;;;;;;4993543;28;20395;-85
2023/02/28 09:22:29;;;;;;;;;;;;;;;;;;4975923;28;19928;-85
2023/02/28 09:24:54;;;;;;;;;;;;;;;;;;4993469;28;20349;-86
2023/02/28 09:27:19;;;;;;;;;;;;;;;;;;4993473;28;20012;-84
2023/02/28 09:29:45;;;;;;;;;;;;;;;;;;4996766;28;19922;-86
2023/02/28 09:32:10;;;;;;;;;;;;;;;;;;4997717;28;19922;-86
2023/02/28 09:34:36;;;;;;;;;;;;;;;;;;4997409;28;19926;-86
2023/02/28 09:37:02;;;;;;;;;;;;;;;;;;4997724;28;19972;-87
2023/02/28 09:39:28;;;;;;;;;;;;;;;;;;4997535;28;19918;-85
2023/02/28 09:41:55;;;;;;;;;;;;;;;;;;5016712;28;19917;-84
2023/02/28 09:44:29;;;;;;;;;;;;;;;;;;5000140;28;20491;-83
2023/02/28 09:47:00;;;;;;;;;;;;;;;;;;5000265;28;19914;-83
2023/02/28 09:49:31;;;;;;;;;;;;;;;;;;4996929;28;19922;-83
2023/02/28 09:52:20;;;;;;;;;;;;;;;;;;4996964;28;19921;-85
2023/02/28 09:54:45;;;;;;;;;;;;;;;;;;4971752;28;19918;-87
2023/02/28 09:57:13;;;;;;;;;;;;;;;;;;4996958;28;19924;-86
2023/02/28 09:59:50;;;;;;;;;;;;;;;;;;4979567;28;20389;-88
2023/02/28 10:02:15;;;;;;;;;;;;;;;;;;4996797;28;19925;-89
2023/02/28 10:04:41;;;;;;;;;;;;;;;;;;4979087;28;19922;-89
2023/02/28 10:07:18;;;;;;;;;;;;;;;;;;4979175;28;20017;-88
2023/02/28 10:09:45;;;;;;;;;;;;;;;;;;4996719;28;20348;-87
2023/02/28 10:12:11;;;;;;;;;;;;;;;;;;4978777;28;19917;-87
2023/02/28 10:14:38;;;;;;;;;;;;;;;;;;4996128;28;19917;-88
2023/02/28 10:17:25;;;;;;;;;;;;;;;;;;4978921;28;19971;-89
2023/02/28 10:20:11;;;;;;;;;;;;;;;;;;4996411;28;19922;-87
2023/02/28 10:22:42;;;;;;;;;;;;;;;;;;4996121;28;19924;-89
2023/02/28 10:25:21;;;;;;;;;;;;;;;;;;4978776;28;19922;-88
2023/02/28 10:27:47;;;;;;;;;;;;;;;;;;4996233;28;19956;-88
2023/02/28 10:30:13;;;;;;;;;;;;;;;;;;4996007;28;19968;-90
2023/02/28 10:32:40;;;;;;;;;;;;;;;;;;4996114;28;20270;-88
2023/02/28 10:35:19;;;;;;;;;;;;;;;;;;4978504;28;19925;-88
2023/02/28 10:37:52;;;;;;;;;;;;;;;;;;4995840;28;19957;-86
2023/02/28 10:40:26;;;;;;;;;;;;;;;;;;4994733;28;19921;-86
2023/02/28 10:42:59;;;;;;;;;;;;;;;;;;4995890;28;19918;-87
2023/02/28 10:45:25;;;;;;;;;;;;;;;;;;4995795;28;19965;-86
2023/02/28 10:47:53;;;;;;;;;;;;;;;;;;4995821;28;19918;-89
2023/02/28 10:50:28;;;;;;;;;;;;;;;;;;4996019;28;19924;-88
2023/02/28 10:52:54;;;;;;;;;;;;;;;;;;4995712;28;19922;-88
2023/02/28 10:55:27;;;;;;;;;;;;;;;;;;4978251;28;19918;-89
2023/02/28 10:57:53;;;;;;;;;;;;;;;;;;4995679;28;19924;-88
2023/02/28 11:00:21;;;;;;;;;;;;;;;;;;4978086;28;20008;-88
2023/02/28 11:02:47;;;;;;;;;;;;;;;;;;4995526;28;19917;-90
2023/02/28 11:05:23;;;;;;;;;;;;;;;;;;4995429;28;19953;-88
2023/02/28 11:07:56;;;;;;;;;;;;;;;;;;4977934;28;20301;-87
2023/02/28 11:10:25;;;;;;;;;;;;;;;;;;4995663;28;19940;-89
2023/02/28 11:12:54;;;;;;;;;;;;;;;;;;4977813;28;19951;-89
2023/02/28 11:15:22;;;;;;;;;;;;;;;;;;4995441;28;19917;-86
2023/02/28 11:18:01;;;;;;;;;;;;;;;;;;4995406;28;19989;-89
2023/02/28 11:20:29;;;;;;;;;;;;;;;;;;4995140;28;19928;-89
2023/02/28 11:22:55;;;;;;;;;;;;;;;;;;4995167;28;19918;-89
2023/02/28 11:25:34;;;;;;;;;;;;;;;;;;4995101;28;19929;-89
2023/02/28 11:28:02;;;;;;;;;;;;;;;;;;4995114;28;19928;-88
2023/02/28 11:30:27;;;;;;;;;;;;;;;;;;4977369;28;20365;-85
2023/02/28 11:32:52;;;;;;;;;;;;;;;;;;4995037;28;20016;-86
2023/02/28 11:35:24;;;;;;;;;;;;;;;;;;4994879;28;19917;-86
2023/02/28 11:37:50;;;;;;;;;;;;;;;;;;4994796;28;20355;-86
2023/02/28 11:40:17;;;;;;;;;;;;;;;;;;4977206;28;19964;-86
2023/02/28 11:42:54;;;;;;;;;;;;;;;;;;4994565;28;20263;-88
2023/02/28 11:45:34;;;;;;;;;;;;;;;;;;4977161;28;19918;-86
2023/02/28 11:47:59;;;;;;;;;;;;;;;;;;4994595;28;19922;-86
2023/02/28 11:50:43;;;;;;;;;;;;;;;;;;4994441;28;19917;-86
2023/02/28 11:53:18;;;;;;;;;;;;;;;;;;4977190;28;20001;-87
2023/02/28 11:55:50;;;;;;;;;;;;;;;;;;4994387;28;19918;-86
2023/02/28 11:58:39;;;;;;;;;;;;;;;;;;4977330;28;20309;-88
2023/02/28 12:01:26;;;;;;;;;;;;;;;;;;4994072;28;19961;-88
2023/02/28 12:03:57;;;;;;;;;;;;;;;;;;4994182;28;19925;-87
2023/02/28 12:06:23;;;;;;;;;;;;;;;;;;4994295;28;19913;-85
2023/02/28 12:08:54;;;;;;;;;;;;;;;;;;4994297;28;20005;-86
2023/02/28 12:11:38;;;;;;;;;;;;;;;;;;4994173;28;19914;-86
2023/02/28 12:14:21;;;;;;;;;;;;;;;;;;4994184;28;19918;-88
2023/02/28 12:17:21;;;;;;;;;;;;;;;;;;4994257;28;20428;-83
2023/02/28 12:20:01;;;;;;;;;;;;;;;;;;4934294;29;19928;-82
2023/02/28 12:22:29;;;;;;;;;;;;;;;;;;4987327;28;19964;-83
2023/02/28 12:24:54;;;;;;;;;;;;;;;;;;4976626;28;20001;-83
2023/02/28 12:27:22;;;;;;;;;;;;;;;;;;4976579;28;19961;-83
2023/02/28 12:30:00;;;;;;;;;;;;;;;;;;4976389;28;19928;-83
2023/02/28 12:32:38;;;;;;;;;;;;;;;;;;4994005;28;20373;-84
2023/02/28 12:35:03;;;;;;;;;;;;;;;;;;4994183;28;19918;-85
2023/02/28 12:37:43;;;;;;;;;;;;;;;;;;4976296;28;19917;-85
2023/02/28 12:40:14;;;;;;;;;;;;;;;;;;4993648;28;19926;-84
2023/02/28 12:42:42;;;;;;;;;;;;;;;;;;4976159;28;19922;-84
2023/02/28 12:45:10;;;;;;;;;;;;;;;;;;4976213;28;19929;-84
2023/02/28 12:47:38;;;;;;;;;;;;;;;;;;4976608;28;20009;-85
2023/02/28 12:50:04;;;;;;;;;;;;;;;;;;4976189;28;19945;-84
2023/02/28 12:52:48;;;;;;;;;;;;;;;;;;4976619;28;19929;-86
2023/02/28 12:55:17;;;;;;;;;;;;;;;;;;4993731;28;20369;-85
2023/02/28 12:57:48;;;;;;;;;;;;;;;;;;4993639;28;19918;-83
2023/02/28 13:00:18;;;;;;;;;;;;;;;;;;4993678;28;19980;-83
2023/02/28 13:02:52;;;;;;;;;;;;;;;;;;4993743;28;19929;-85
2023/02/28 13:05:29;;;;;;;;;;;;;;;;;;4998873;28;19917;-85
2023/02/28 13:08:18;;;;;;;;;;;;;;;;;;4997688;28;20005;-85
2023/02/28 13:10:45;;;;;;;;;;;;;;;;;;4992064;28;19961;-84
2023/02/28 13:13:19;;;;;;;;;;;;;;;;;;4980299;28;19928;-85
2023/02/28 13:15:57;;;;;;;;;;;;;;;;;;4997537;28;19929;-85
2023/02/28 13:18:30;;;;;;;;;;;;;;;;;;4980226;28;19960;-85
2023/02/28 13:20:55;;;;;;;;;;;;;;;;;;4979816;28;20020;-85
2023/02/28 13:23:40;;;;;;;;;;;;;;;;;;4980072;28;20000;-85
2023/02/28 13:26:05;;;;;;;;;;;;;;;;;;4998017;28;19921;-87
2023/02/28 13:28:49;;;;;;;;;;;;;;;;;;4997082;28;19976;-84
2023/02/28 13:31:16;;;;;;;;;;;;;;;;;;4979776;28;19918;-85
2023/02/28 13:34:02;;;;;;;;;;;;;;;;;;4997029;28;19914;-86
2023/02/28 13:36:30;;;;;;;;;;;;;;;;;;4989822;28;19922;-86
2023/02/28 13:38:59;;;;;;;;;;;;;;;;;;4998194;28;19941;-85
2023/02/28 13:41:30;;;;;;;;;;;;;;;;;;4981049;28;19980;-84
2023/02/28 13:44:08;;;;;;;;;;;;;;;;;;4997508;28;19922;-83
2023/02/28 13:46:49;;;;;;;;;;;;;;;;;;4979785;28;19925;-84
2023/02/28 13:49:25;;;;;;;;;;;;;;;;;;4980463;28;19973;-85
2023/02/28 13:51:53;;;;;;;;;;;;;;;;;;5010117;28;19917;-84
2023/02/28 13:54:24;;;;;;;;;;;;;;;;;;5013996;28;20009;-86
2023/02/28 13:57:08;;;;;;;;;;;;;;;;;;5002848;28;19918;-84
2023/02/28 13:59:33;;;;;;;;;;;;;;;;;;4997760;28;19917;-85
2023/02/28 14:02:17;;;;;;;;;;;;;;;;;;4997081;28;20398;-85
2023/02/28 14:04:50;;;;;;;;;;;;;;;;;;4997070;28;19928;-85
2023/02/28 14:07:17;;;;;;;;;;;;;;;;;;4996919;28;19913;-86
2023/02/28 14:09:46;;;;;;;;;;;;;;;;;;4979256;28;19929;-87
2023/02/28 14:12:30;;;;;;;;;;;;;;;;;;4979658;28;20392;-84
2023/02/28 14:14:56;;;;;;;;;;;;;;;;;;4979783;28;20052;-86
2023/02/28 14:17:22;;;;;;;;;;;;;;;;;;4996381;28;20001;-86
2023/02/28 14:19:49;;;;;;;;;;;;;;;;;;4996812;28;19918;-86
2023/02/28 14:22:14;;;;;;;;;;;;;;;;;;4979775;28;19924;-85
2023/02/28 14:25:05;;;;;;;;;;;;;;;;;;4979763;28;20386;-88
2023/02/28 14:27:42;;;;;;;;;;;;;;;;;;4979482;28;19922;-86
2023/02/28 14:30:11;;;;;;;;;;;;;;;;;;4979173;28;20400;-84
2023/02/28 14:32:55;;;;;;;;;;;;;;;;;;4997069;28;20289;-86
2023/02/28 14:35:39;;;;;;;;;;;;;;;;;;4981475;28;19929;-86
2023/02/28 14:38:06;;;;;;;;;;;;;;;;;;4979914;28;20368;-85
2023/02/28 14:40:33;;;;;;;;;;;;;;;;;;4997368;28;19925;-86
2023/02/28 14:43:00;;;;;;;;;;;;;;;;;;4996070;28;19940;-83
2023/02/28 14:45:29;;;;;;;;;;;;;;;;;;4995954;28;19981;-87
2023/02/28 14:47:54;;;;;;;;;;;;;;;;;;4978516;28;19918;-85
2023/02/28 14:50:22;;;;;;;;;;;;;;;;;;4995954;28;19926;-85
2023/02/28 14:52:48;;;;;;;;;;;;;;;;;;4996224;28;19956;-87
2023/02/28 14:55:16;;;;;;;;;;;;;;;;;;4978321;28;20005;-85
2023/02/28 14:57:50;;;;;;;;;;;;;;;;;;4978489;28;19924;-87
2023/02/28 15:00:29;;;;;;;;;;;;;;;;;;4978253;28;19918;-84
2023/02/28 15:02:56;;;;;;;;;;;;;;;;;;4977975;28;20362;-84
2023/02/28 15:05:24;;;;;;;;;;;;;;;;;;4995587;28;20020;-85
2023/02/28 15:08:00;;;;;;;;;;;;;;;;;;4978147;28;19925;-85
2023/02/28 15:10:26;;;;;;;;;;;;;;;;;;4995395;28;19949;-84
2023/02/28 15:12:56;;;;;;;;;;;;;;;;;;4995323;28;19922;-85
2023/02/28 15:15:24;;;;;;;;;;;;;;;;;;4977828;28;19918;-88
2023/02/28 15:17:51;;;;;;;;;;;;;;;;;;4977748;28;19924;-86
2023/02/28 15:20:18;;;;;;;;;;;;;;;;;;4995198;28;20005;-85
2023/02/28 15:22:44;;;;;;;;;;;;;;;;;;4995548;28;20378;-84
2023/02/28 15:25:13;;;;;;;;;;;;;;;;;;4994895;28;19957;-85
2023/02/28 15:27:41;;;;;;;;;;;;;;;;;;4994623;28;20009;-86
2023/02/28 15:30:08;;;;;;;;;;;;;;;;;;4978192;28;19992;-85
2023/02/28 15:32:35;;;;;;;;;;;;;;;;;;4975670;28;19969;-85
2023/02/28 15:35:25;;;;;;;;;;;;;;;;;;4976058;28;19925;-85
2023/02/28 15:37:55;;;;;;;;;;;;;;;;;;4957950;28;20374;-85
2023/02/28 15:40:29;;;;;;;;;;;;;;;;;;4957962;28;19921;-85
2023/02/28 15:42:59;;;;;;;;;;;;;;;;;;4975232;28;19923;-85
2023/02/28 15:45:48;;;;;;;;;;;;;;;;;;4975357;28;20018;-83
2023/02/28 15:48:28;;;;;;;;;;;;;;;;;;4967174;28;19918;-86
2023/02/28 15:51:01;;;;;;;;;;;;;;;;;;4975059;28;19918;-86
2023/02/28 15:53:31;;;;;;;;;;;;;;;;;;4975108;28;20396;-86
2023/02/28 15:56:05;;;;;;;;;;;;;;;;;;4957637;28;20362;-85
2023/02/28 15:58:37;;;;;;;;;;;;;;;;;;4981388;28;19953;-86
2023/02/28 16:01:31;;;;;;;;;;;;;;;;;;;;;
2023/02/28 16:04:02;;;;;;;;;;;;;;;;;;4984398;28;20004;-84
2023/02/28 16:06:36;;;;;;;;;;;;;;;;;;4977514;28;19926;-87
2023/02/28 16:09:03;;;;;;;;;;;;;;;;;;4958782;28;19921;-85
2023/02/28 16:11:30;;;;;;;;;;;;;;;;;;4974887;28;19919;-85
2023/02/28 16:13:56;;;;;;;;;;;;;;;;;;4977156;28;19914;-89
2023/02/28 16:16:24;;;;;;;;;;;;;;;;;;4976094;28;20382;-86
2023/02/28 16:18:52;;;;;;;;;;;;;;;;;;4989255;28;19929;-88
2023/02/28 16:21:18;;;;;;;;;;;;;;;;;;4967631;28;20058;-86
2023/02/28 16:23:44;;;;;;;;;;;;;;;;;;4975389;28;20403;-86
2023/02/28 16:26:16;;;;;;;;;;;;;;;;;;4957519;28;19918;-87
2023/02/28 16:28:41;;;;;;;;;;;;;;;;;;4959450;28;19929;-87
2023/02/28 16:31:07;;;;;;;;;;;;;;;;;;4977925;28;19922;-86
2023/02/28 16:33:32;;;;;;;;;;;;;;;;;;4974751;28;19926;-86
2023/02/28 16:35:58;;;;;;;;;;;;;;;;;;4974652;28;19922;-86
2023/02/28 16:38:24;;;;;;;;;;;;;;;;;;4957421;28;19926;-87
2023/02/28 16:40:51;;;;;;;;;;;;;;;;;;4974425;28;19919;-89
2023/02/28 16:43:18;;;;;;;;;;;;;;;;;;4974614;28;20009;-87
2023/02/28 16:45:45;;;;;;;;;;;;;;;;;;4974605;28;19922;-86
2023/02/28 16:48:14;;;;;;;;;;;;;;;;;;4974592;28;20370;-87
2023/02/28 16:50:40;;;;;;;;;;;;;;;;;;4957294;28;19918;-86
2023/02/28 16:53:05;;;;;;;;;;;;;;;;;;4975059;28;19925;-88
2023/02/28 16:55:31;;;;;;;;;;;;;;;;;;4974685;28;19925;-88
2023/02/28 16:58:00;;;;;;;;;;;;;;;;;;4974550;28;20017;-86
2023/02/28 17:00:27;;;;;;;;;;;;;;;;;;4963559;28;19922;-87